Time;durP1;ratioP1;P1;durP2;ratioP2;P2;SDS_P1;SDS_P2;PMS_P1;PMS_P2;Temp;Humidity;BMP_temperature;BMP_pressure;BME280_temperature;BME280_humidity;BME280_pressure;Samples;Min_cycle;Max_cycle;Signal;HPM_P1;HPM_P2
2021/09/11 00:02:46;;;;;;;;;;;20.40;96.80;;;;;;5010467;28;19913;-73
2021/09/11 00:05:52;;;;;;;;;;;20.40;96.90;;;;;;5011274;28;19921;-73
2021/09/11 00:08:57;;;;;;;;;;;20.40;97.10;;;;;;5011305;28;19910;-72
2021/09/11 00:12:02;;;;;;;;;;;20.40;97.30;;;;;;5010582;28;20280;-73
2021/09/11 00:15:07;;;;;;;;;;;20.30;97.40;;;;;;5011116;28;19913;-73
2021/09/11 00:18:11;;;;;;;;;;;20.40;97.50;;;;;;5011354;28;19924;-73
2021/09/11 00:21:16;;;;;;;;;;;20.40;97.60;;;;;;5010599;28;19917;-73
2021/09/11 00:24:20;;;;;;;;;;;20.40;97.60;;;;;;5010997;28;20335;-73
2021/09/11 00:27:24;;;;;;;;;;;20.40;97.60;;;;;;5011432;28;19914;-72
2021/09/11 00:30:28;;;;;;;;;;;20.50;97.70;;;;;;5011247;28;19910;-73
2021/09/11 00:33:32;;;;;;;;;;;20.50;97.60;;;;;;5011229;28;19910;-73
2021/09/11 00:36:36;;;;;;;;;;;20.50;97.80;;;;;;5011460;28;20253;-73
2021/09/11 00:39:40;;;;;;;;;;;20.40;98.20;;;;;;5011318;28;19909;-72
2021/09/11 00:42:47;;;;;;;;;;;20.20;98.50;;;;;;5010380;28;19918;-72
2021/09/11 00:45:53;;;;;;;;;;;20.10;98.90;;;;;;5011075;28;19909;-72
2021/09/11 00:48:57;;;;;;;;;;;19.90;99.40;;;;;;5011152;28;19913;-73
2021/09/11 00:52:01;;;;;;;;;;;19.80;99.60;;;;;;5010698;28;19925;-72
2021/09/11 00:55:06;;;;;;;;;;;19.70;99.60;;;;;;5010762;28;20352;-72
2021/09/11 00:58:10;;;;;;;;;;;19.70;99.70;;;;;;5011162;28;19909;-72
2021/09/11 01:01:14;;;;;;;;;;;19.70;99.90;;;;;;5010323;28;19918;-73
2021/09/11 01:04:18;;;;;;;;;;;19.60;99.90;;;;;;5010713;28;19913;-72
2021/09/11 01:07:24;;;;;;;;;;;19.70;99.90;;;;;;5011190;28;19916;-73
2021/09/11 01:10:27;;;;;;;;;;;19.70;99.90;;;;;;5010830;28;20624;-73
2021/09/11 01:13:33;;;;;;;;;;;19.70;99.90;;;;;;5013617;28;20300;-72
2021/09/11 01:16:37;;;;;;;;;;;19.80;99.90;;;;;;5013095;28;20435;-73
2021/09/11 01:19:41;;;;;;;;;;;19.80;99.90;;;;;;5014316;28;19909;-73
2021/09/11 01:22:45;;;;;;;;;;;19.90;99.90;;;;;;5013714;28;19940;-73
2021/09/11 01:25:49;;;;;;;;;;;19.90;99.90;;;;;;5014187;28;19909;-73
2021/09/11 01:28:53;;;;;;;;;;;20.00;99.90;;;;;;5014612;28;19910;-73
2021/09/11 01:31:57;;;;;;;;;;;19.80;99.90;;;;;;5013541;28;20353;-73
2021/09/11 01:35:01;;;;;;;;;;;19.60;99.90;;;;;;5013864;28;20614;-72
2021/09/11 01:38:05;;;;;;;;;;;19.40;99.90;;;;;;5014395;28;19909;-72
2021/09/11 01:41:11;;;;;;;;;;;19.30;99.90;;;;;;5013412;28;19913;-72
2021/09/11 01:44:17;;;;;;;;;;;19.20;99.90;;;;;;5013894;28;20264;-72
2021/09/11 01:47:21;;;;;;;;;;;19.10;99.90;;;;;;5013808;28;19917;-72
2021/09/11 01:50:25;;;;;;;;;;;19.10;99.90;;;;;;5014121;28;19921;-72
2021/09/11 01:53:29;;;;;;;;;;;19.10;99.90;;;;;;5013892;28;19909;-72
2021/09/11 01:56:33;;;;;;;;;;;19.20;99.90;;;;;;5014104;28;19935;-72
2021/09/11 01:59:37;;;;;;;;;;;19.10;99.90;;;;;;5013223;28;19910;-72
2021/09/11 02:02:42;;;;;;;;;;;19.20;99.90;;;;;;5012508;28;19917;-72
2021/09/11 02:05:46;;;;;;;;;;;19.10;99.90;;;;;;5013645;28;19913;-72
2021/09/11 02:08:50;;;;;;;;;;;19.10;99.90;;;;;;5013382;28;19981;-72
2021/09/11 02:11:54;;;;;;;;;;;19.00;99.90;;;;;;5012816;28;19910;-73
2021/09/11 02:14:58;;;;;;;;;;;19.00;99.90;;;;;;5013636;28;20275;-73
2021/09/11 02:18:02;;;;;;;;;;;19.00;99.90;;;;;;5013655;28;19913;-72
2021/09/11 02:21:06;;;;;;;;;;;19.00;99.90;;;;;;5012790;28;19920;-72
2021/09/11 02:24:11;;;;;;;;;;;19.10;99.90;;;;;;5012919;28;19909;-73
2021/09/11 02:27:15;;;;;;;;;;;18.90;99.90;;;;;;5013372;28;19913;-73
2021/09/11 02:30:19;;;;;;;;;;;18.70;99.90;;;;;;5013474;28;20352;-73
2021/09/11 02:33:23;;;;;;;;;;;18.50;99.90;;;;;;5013322;28;19914;-73
2021/09/11 02:36:27;;;;;;;;;;;18.30;99.90;;;;;;5013019;28;19921;-72
2021/09/11 02:39:31;;;;;;;;;;;18.30;99.90;;;;;;5013200;28;19910;-72
2021/09/11 02:42:35;;;;;;;;;;;18.20;99.90;;;;;;5012606;28;19913;-72
2021/09/11 02:45:39;;;;;;;;;;;18.20;99.90;;;;;;5012965;28;19914;-72
2021/09/11 02:48:43;;;;;;;;;;;18.20;99.90;;;;;;5013127;28;19913;-72
2021/09/11 02:51:47;;;;;;;;;;;18.30;99.90;;;;;;5012360;28;19913;-72
2021/09/11 02:54:51;;;;;;;;;;;18.30;99.90;;;;;;5012910;28;19909;-72
2021/09/11 02:57:56;;;;;;;;;;;18.30;99.90;;;;;;5013315;28;20455;-72
2021/09/11 03:01:00;;;;;;;;;;;18.20;99.90;;;;;;5012314;28;19913;-72
2021/09/11 03:04:04;;;;;;;;;;;18.10;99.90;;;;;;5012919;28;19920;-72
2021/09/11 03:07:08;;;;;;;;;;;18.10;99.90;;;;;;5012785;28;20364;-72
2021/09/11 03:10:12;;;;;;;;;;;18.00;99.90;;;;;;4993209;28;20272;-72
2021/09/11 03:13:16;;;;;;;;;;;18.00;99.90;;;;;;4992969;28;19918;-72
2021/09/11 03:16:20;;;;;;;;;;;18.00;99.90;;;;;;4992556;28;19910;-72
2021/09/11 03:19:25;;;;;;;;;;;18.00;99.90;;;;;;4992666;28;19909;-72
2021/09/11 03:22:29;;;;;;;;;;;17.80;99.90;;;;;;4992013;28;19936;-72
2021/09/11 03:25:32;;;;;;;;;;;17.60;99.90;;;;;;4992544;28;19914;-72
2021/09/11 03:28:36;;;;;;;;;;;17.50;99.90;;;;;;4992617;28;19913;-72
2021/09/11 03:31:41;;;;;;;;;;;17.30;99.90;;;;;;4991890;28;19913;-72
2021/09/11 03:34:44;;;;;;;;;;;17.30;99.90;;;;;;4991724;28;19910;-72
2021/09/11 03:37:49;;;;;;;;;;;17.30;99.90;;;;;;4992519;28;19909;-72
2021/09/11 03:40:52;;;;;;;;;;;17.20;99.90;;;;;;4991949;28;19913;-72
2021/09/11 03:43:56;;;;;;;;;;;17.20;99.90;;;;;;4992305;28;19910;-72
2021/09/11 03:47:01;;;;;;;;;;;17.20;99.90;;;;;;4992312;28;19910;-72
2021/09/11 03:50:05;;;;;;;;;;;17.10;99.90;;;;;;4992544;28;19914;-72
2021/09/11 03:53:10;;;;;;;;;;;17.00;99.90;;;;;;4991886;28;19910;-72
2021/09/11 03:56:14;;;;;;;;;;;17.00;99.90;;;;;;4991921;28;20550;-72
2021/09/11 03:59:17;;;;;;;;;;;16.90;99.90;;;;;;4992249;28;19913;-72
2021/09/11 04:02:22;;;;;;;;;;;16.90;99.90;;;;;;4991450;28;19920;-72
2021/09/11 04:05:26;;;;;;;;;;;16.90;99.90;;;;;;4992096;28;19910;-72
2021/09/11 04:08:30;;;;;;;;;;;16.90;99.90;;;;;;4997994;28;19913;-72
2021/09/11 04:11:34;;;;;;;;;;;16.80;99.90;;;;;;5011077;28;20336;-72
2021/09/11 04:14:38;;;;;;;;;;;16.70;99.90;;;;;;5011718;28;19909;-72
2021/09/11 04:17:42;;;;;;;;;;;16.70;99.90;;;;;;5011468;28;20297;-71
2021/09/11 04:20:46;;;;;;;;;;;16.70;99.90;;;;;;5011486;28;19914;-72
2021/09/11 04:23:50;;;;;;;;;;;16.70;99.90;;;;;;5011515;28;19917;-72
2021/09/11 04:26:54;;;;;;;;;;;16.60;99.90;;;;;;5011381;28;19913;-71
2021/09/11 04:29:58;;;;;;;;;;;16.50;99.90;;;;;;5011634;28;19913;-72
2021/09/11 04:33:02;;;;;;;;;;;16.40;99.90;;;;;;5010719;28;19909;-72
2021/09/11 04:36:07;;;;;;;;;;;16.20;99.90;;;;;;5011205;28;20337;-72
2021/09/11 04:39:11;;;;;;;;;;;16.20;99.90;;;;;;5011499;28;20348;-72
2021/09/11 04:42:15;;;;;;;;;;;16.20;99.90;;;;;;5010634;28;19913;-72
2021/09/11 04:45:20;;;;;;;;;;;16.10;99.90;;;;;;5011472;28;19909;-72
2021/09/11 04:48:24;;;;;;;;;;;16.10;99.90;;;;;;5015171;28;19917;-72
2021/09/11 04:51:28;;;;;;;;;;;16.00;99.90;;;;;;5014898;28;19909;-72
2021/09/11 04:54:32;;;;;;;;;;;15.90;99.90;;;;;;5015294;28;19909;-72
2021/09/11 04:57:36;;;;;;;;;;;15.80;99.90;;;;;;5014779;28;19917;-71
2021/09/11 05:00:41;;;;;;;;;;;15.80;99.90;;;;;;5014647;28;20415;-71
2021/09/11 05:03:45;;;;;;;;;;;15.80;99.90;;;;;;5014834;28;19914;-72
2021/09/11 05:06:49;;;;;;;;;;;15.80;99.90;;;;;;5014416;28;19917;-72
2021/09/11 05:09:53;;;;;;;;;;;15.90;99.90;;;;;;5014734;28;19909;-72
2021/09/11 05:12:57;;;;;;;;;;;15.90;99.90;;;;;;5013825;28;20288;-71
2021/09/11 05:16:01;;;;;;;;;;;16.10;99.90;;;;;;5014479;28;19909;-72
2021/09/11 05:19:05;;;;;;;;;;;16.30;99.90;;;;;;5014665;28;20348;-72
2021/09/11 05:22:09;;;;;;;;;;;16.40;99.90;;;;;;5013581;28;20252;-72
2021/09/11 05:25:13;;;;;;;;;;;16.70;99.90;;;;;;5014619;28;19910;-72
2021/09/11 05:28:17;;;;;;;;;;;16.90;99.90;;;;;;5014488;28;20364;-72
2021/09/11 05:31:22;;;;;;;;;;;17.10;99.90;;;;;;5013990;28;19910;-72
2021/09/11 05:34:25;;;;;;;;;;;17.30;99.90;;;;;;5014673;28;19906;-72
2021/09/11 05:37:29;;;;;;;;;;;17.60;99.90;;;;;;5024864;28;19910;-72
2021/09/11 05:40:33;;;;;;;;;;;18.20;99.90;;;;;;5014235;28;20352;-72
2021/09/11 05:43:37;;;;;;;;;;;20.40;99.90;;;;;;5014457;28;19917;-72
2021/09/11 05:46:41;;;;;;;;;;;22.60;99.90;;;;;;5014287;28;19910;-72
2021/09/11 05:49:45;;;;;;;;;;;23.00;99.90;;;;;;5014196;28;19917;-72
2021/09/11 05:52:49;;;;;;;;;;;22.30;99.50;;;;;;5013913;28;19913;-72
2021/09/11 05:55:53;;;;;;;;;;;21.40;99.90;;;;;;5014269;28;20262;-73
2021/09/11 05:58:58;;;;;;;;;;;20.80;99.90;;;;;;5012842;28;20012;-72
2021/09/11 06:02:02;;;;;;;;;;;20.50;99.90;;;;;;5013522;28;19913;-73
2021/09/11 06:05:06;;;;;;;;;;;20.20;99.90;;;;;;5014147;28;19914;-72
2021/09/11 06:08:10;;;;;;;;;;;20.10;99.90;;;;;;5012945;28;19909;-73
2021/09/11 06:11:14;;;;;;;;;;;21.20;99.90;;;;;;5013384;28;19909;-73
2021/09/11 06:14:18;;;;;;;;;;;22.80;99.90;;;;;;5014130;28;19909;-72
2021/09/11 06:17:22;;;;;;;;;;;24.10;98.40;;;;;;5014090;28;19909;-72
2021/09/11 06:20:26;;;;;;;;;;;24.10;96.80;;;;;;5013833;28;19917;-72
2021/09/11 06:23:30;;;;;;;;;;;23.50;97.20;;;;;;5013186;28;19917;-73
2021/09/11 06:26:34;;;;;;;;;;;23.20;97.70;;;;;;5013716;28;19909;-72
2021/09/11 06:29:38;;;;;;;;;;;23.00;97.80;;;;;;5013342;28;20348;-72
2021/09/11 06:32:42;;;;;;;;;;;23.20;97.70;;;;;;5013368;28;19913;-72
2021/09/11 06:35:46;;;;;;;;;;;24.70;96.20;;;;;;5013480;28;19913;-72
2021/09/11 06:38:50;;;;;;;;;;;25.80;93.90;;;;;;5013352;28;20264;-72
2021/09/11 06:41:54;;;;;;;;;;;25.80;92.90;;;;;;5012542;28;19913;-72
2021/09/11 06:44:58;;;;;;;;;;;25.20;93.30;;;;;;5013306;28;19909;-73
2021/09/11 06:48:02;;;;;;;;;;;25.30;93.00;;;;;;5013190;28;19918;-72
2021/09/11 06:51:06;;;;;;;;;;;24.60;94.10;;;;;;5011695;28;19910;-72
2021/09/11 06:54:10;;;;;;;;;;;26.60;91.60;;;;;;5013359;28;19909;-73
2021/09/11 06:57:14;;;;;;;;;;;27.20;90.40;;;;;;5013211;28;20489;-72
2021/09/11 07:00:18;;;;;;;;;;;28.00;87.70;;;;;;5012825;28;19913;-72
2021/09/11 07:03:22;;;;;;;;;;;28.90;85.70;;;;;;5013201;28;19936;-73
2021/09/11 07:06:26;;;;;;;;;;;28.60;84.70;;;;;;5013039;28;19913;-70
2021/09/11 07:09:30;;;;;;;;;;;28.00;84.70;;;;;;5012748;28;19909;-70
2021/09/11 07:12:34;;;;;;;;;;;25.10;88.70;;;;;;5012282;28;20345;-72
2021/09/11 07:15:39;;;;;;;;;;;23.60;93.20;;;;;;5012980;28;19909;-73
2021/09/11 07:18:43;;;;;;;;;;;24.20;93.10;;;;;;5012478;28;19909;-73
2021/09/11 07:21:47;;;;;;;;;;;24.60;92.80;;;;;;5011905;28;19917;-73
2021/09/11 07:24:51;;;;;;;;;;;26.00;91.10;;;;;;5011551;28;19914;-73
2021/09/11 07:27:55;;;;;;;;;;;26.30;90.40;;;;;;5012370;28;19910;-72
2021/09/11 07:30:59;;;;;;;;;;;26.60;89.50;;;;;;5011591;28;19909;-72
2021/09/11 07:34:03;;;;;;;;;;;27.30;88.30;;;;;;5012316;28;19909;-72
2021/09/11 07:37:07;;;;;;;;;;;28.50;85.70;;;;;;5012405;28;19909;-71
2021/09/11 07:40:11;;;;;;;;;;;26.80;85.90;;;;;;5011783;28;20353;-73
2021/09/11 07:43:15;;;;;;;;;;;28.60;84.50;;;;;;5012052;28;20311;-72
2021/09/11 07:46:19;;;;;;;;;;;30.70;79.90;;;;;;5011914;28;19916;-70
2021/09/11 07:49:23;;;;;;;;;;;28.40;80.80;;;;;;5011609;28;19913;-72
2021/09/11 07:52:27;;;;;;;;;;;29.10;81.00;;;;;;5011242;28;19913;-71
2021/09/11 07:55:32;;;;;;;;;;;29.10;80.50;;;;;;5011714;28;19910;-71
2021/09/11 07:58:36;;;;;;;;;;;31.10;76.60;;;;;;5011805;28;19913;-72
2021/09/11 08:01:40;;;;;;;;;;;32.90;73.20;;;;;;5010859;28;19920;-72
2021/09/11 08:04:45;;;;;;;;;;;33.70;70.40;;;;;;5011536;28;19910;-71
2021/09/11 08:07:49;;;;;;;;;;;34.10;68.20;;;;;;5011453;28;19910;-71
2021/09/11 08:10:53;;;;;;;;;;;34.30;67.40;;;;;;5010520;28;19939;-72
2021/09/11 08:13:57;;;;;;;;;;;33.30;66.50;;;;;;5011436;28;19916;-71
2021/09/11 08:17:02;;;;;;;;;;;34.20;67.90;;;;;;5011608;28;21323;-73
2021/09/11 08:20:06;;;;;;;;;;;35.00;66.50;;;;;;5010954;28;19914;-71
2021/09/11 08:23:10;;;;;;;;;;;33.90;67.40;;;;;;5010371;28;19917;-71
2021/09/11 08:26:14;;;;;;;;;;;35.30;64.90;;;;;;5011604;28;19909;-71
2021/09/11 08:29:18;;;;;;;;;;;34.00;63.30;;;;;;5011069;28;19909;-71
2021/09/11 08:32:22;;;;;;;;;;;34.50;63.80;;;;;;5010769;28;19905;-72
2021/09/11 08:35:25;;;;;;;;;;;36.00;62.70;;;;;;5011441;28;19910;-73
2021/09/11 08:38:34;;;;;;;;;;;36.80;61.50;;;;;;5011260;28;19917;-71
2021/09/11 08:41:37;;;;;;;;;;;37.80;60.00;;;;;;5010235;28;20275;-71
2021/09/11 08:44:41;;;;;;;;;;;37.90;60.40;;;;;;5011226;28;20353;-72
2021/09/11 08:47:46;;;;;;;;;;;36.00;59.30;;;;;;5011262;28;19913;-71
2021/09/11 08:50:51;;;;;;;;;;;37.10;59.50;;;;;;5010440;28;19909;-71
2021/09/11 08:53:55;;;;;;;;;;;38.00;58.40;;;;;;5011267;28;19909;-73
2021/09/11 08:57:15;;;;;;;;;;;39.30;56.10;;;;;;5011211;28;19909;-73
2021/09/11 09:00:19;;;;;;;;;;;38.80;56.30;;;;;;5010838;28;20384;-72
2021/09/11 09:03:26;;;;;;;;;;;40.20;54.00;;;;;;5011106;28;19913;-72
2021/09/11 09:06:32;;;;;;;;;;;37.70;53.90;;;;;;5011099;28;19920;-73
2021/09/11 09:09:40;;;;;;;;;;;39.40;55.00;;;;;;5010936;28;20668;-70
2021/09/11 09:12:45;;;;;;;;;;;40.80;51.30;;;;;;5010387;28;19909;-73
2021/09/11 09:15:49;;;;;;;;;;;40.50;53.70;;;;;;5011310;28;20368;-73
2021/09/11 09:18:54;;;;;;;;;;;39.00;53.60;;;;;;5011077;28;19913;-73
2021/09/11 09:21:59;;;;;;;;;;;39.60;52.90;;;;;;5020440;28;20296;-73
2021/09/11 09:25:06;;;;;;;;;;;39.30;53.30;;;;;;5011059;28;19910;-73
2021/09/11 09:28:11;;;;;;;;;;;39.50;52.90;;;;;;5010874;28;19910;-73
2021/09/11 09:31:21;;;;;;;;;;;38.30;53.40;;;;;;5009852;28;20268;-73
2021/09/11 09:34:33;;;;;;;;;;;40.60;52.50;;;;;;5013942;28;19910;-74
2021/09/11 09:37:51;;;;;;;;;;;37.90;52.90;;;;;;5014304;28;19909;-73
2021/09/11 09:40:57;;;;;;;;;;;39.70;52.70;;;;;;5013406;28;19909;-73
2021/09/11 09:44:01;;;;;;;;;;;40.40;52.00;;;;;;5013923;28;19924;-74
2021/09/11 09:47:05;;;;;;;;;;;38.70;53.00;;;;;;5014508;28;19913;-74
2021/09/11 09:50:17;;;;;;;;;;;41.00;52.50;;;;;;5014482;28;20276;-70
2021/09/11 09:53:21;;;;;;;;;;;39.90;52.20;;;;;;5014023;28;19910;-71
2021/09/11 09:56:26;;;;;;;;;;;36.40;54.10;;;;;;5014084;28;19909;-73
2021/09/11 09:59:31;;;;;;;;;;;36.30;54.50;;;;;;5013906;28;19909;-73
2021/09/11 10:02:37;;;;;;;;;;;38.50;54.10;;;;;;5013061;28;19913;-72
2021/09/11 10:05:42;;;;;;;;;;;39.00;52.80;;;;;;5012645;28;20352;-74
2021/09/11 10:08:58;;;;;;;;;;;39.70;52.90;;;;;;5014005;28;20363;-73
2021/09/11 10:12:02;;;;;;;;;;;40.20;52.70;;;;;;5012559;28;19917;-73
2021/09/11 10:15:21;;;;;;;;;;;40.10;51.80;;;;;;5014096;28;19910;-74
2021/09/11 10:18:29;;;;;;;;;;;42.80;50.90;;;;;;5014003;28;19913;-71
2021/09/11 10:21:40;;;;;;;;;;;44.80;49.40;;;;;;5012947;28;19910;-73
2021/09/11 10:24:47;;;;;;;;;;;45.70;47.90;;;;;;5013847;28;19913;-72
2021/09/11 10:28:09;;;;;;;;;;;47.00;47.50;;;;;;5013718;28;19909;-73
2021/09/11 10:31:13;;;;;;;;;;;48.10;46.00;;;;;;5012171;28;19909;-73
2021/09/11 10:34:17;;;;;;;;;;;46.90;45.70;;;;;;5013555;28;19921;-73
2021/09/11 10:37:26;;;;;;;;;;;45.60;46.40;;;;;;5012999;28;19909;-74
2021/09/11 10:40:31;;;;;;;;;;;43.50;46.50;;;;;;5012824;28;19913;-73
2021/09/11 10:43:36;;;;;;;;;;;40.90;49.80;;;;;;5012506;28;19913;-73
2021/09/11 10:46:50;;;;;;;;;;;42.60;48.80;;;;;;5012619;28;20360;-73
2021/09/11 10:50:11;;;;;;;;;;;44.30;47.00;;;;;;5012850;28;19913;-73
2021/09/11 10:53:19;;;;;;;;;;;45.00;46.00;;;;;;5012390;28;19913;-74
2021/09/11 10:56:27;;;;;;;;;;;46.60;45.80;;;;;;5011979;28;19916;-74
2021/09/11 10:59:32;;;;;;;;;;;47.90;44.70;;;;;;5012542;28;19917;-74
2021/09/11 11:02:39;;;;;;;;;;;49.20;44.20;;;;;;5011582;28;19913;-73
2021/09/11 11:06:01;;;;;;;;;;;49.70;43.40;;;;;;5012294;28;19913;-72
2021/09/11 11:09:06;;;;;;;;;;;45.30;43.10;;;;;;5012660;28;19917;-72
2021/09/11 11:12:11;;;;;;;;;;;40.50;47.80;;;;;;5011766;28;19913;-73
2021/09/11 11:15:17;;;;;;;;;;;42.80;46.80;;;;;;5012514;28;19918;-74
2021/09/11 11:18:21;;;;;;;;;;;45.30;45.60;;;;;;5012275;28;19909;-74
2021/09/11 11:21:25;;;;;;;;;;;47.20;44.40;;;;;;5011498;28;19932;-72
2021/09/11 11:24:30;;;;;;;;;;;48.30;43.30;;;;;;5012386;28;20353;-72
2021/09/11 11:27:34;;;;;;;;;;;48.90;42.90;;;;;;5012624;28;19914;-74
2021/09/11 11:30:39;;;;;;;;;;;44.50;43.60;;;;;;5016290;28;20345;-73
2021/09/11 11:33:44;;;;;;;;;;;45.70;44.50;;;;;;5011736;28;19914;-74
2021/09/11 11:36:54;;;;;;;;;;;46.80;43.80;;;;;;5011964;28;19909;-73
2021/09/11 11:39:59;;;;;;;;;;;48.20;42.80;;;;;;5012074;28;19913;-72
2021/09/11 11:43:04;;;;;;;;;;;48.60;41.40;;;;;;5010842;28;20284;-73
2021/09/11 11:46:07;;;;;;;;;;;48.70;41.60;;;;;;5012187;28;19913;-72
2021/09/11 11:49:11;;;;;;;;;;;46.10;42.30;;;;;;5011642;28;20349;-75
2021/09/11 11:52:15;;;;;;;;;;;46.00;42.50;;;;;;5010968;28;19914;-74
2021/09/11 11:55:21;;;;;;;;;;;43.70;42.70;;;;;;5010629;28;19909;-74
2021/09/11 11:58:27;;;;;;;;;;;44.50;42.90;;;;;;5009911;28;19909;-73
2021/09/11 12:01:31;;;;;;;;;;;43.10;43.70;;;;;;5010491;28;19921;-72
2021/09/11 12:04:37;;;;;;;;;;;42.60;43.30;;;;;;5011579;28;19921;-72
2021/09/11 12:07:42;;;;;;;;;;;43.60;43.50;;;;;;5011272;28;19909;-72
2021/09/11 12:10:51;;;;;;;;;;;42.10;43.90;;;;;;5010125;28;19913;-71
2021/09/11 12:13:56;;;;;;;;;;;39.40;46.00;;;;;;5010721;28;19909;-73
2021/09/11 12:17:00;;;;;;;;;;;36.80;47.80;;;;;;5007681;28;19918;-73
2021/09/11 12:20:14;;;;;;;;;;;35.20;50.20;;;;;;5008359;28;19918;-72
2021/09/11 12:23:29;;;;;;;;;;;35.00;49.90;;;;;;5010299;28;19917;-71
2021/09/11 12:26:38;;;;;;;;;;;35.10;50.30;;;;;;5010589;28;19913;-70
2021/09/11 12:29:43;;;;;;;;;;;35.50;50.10;;;;;;5011005;28;20528;-73
2021/09/11 12:32:50;;;;;;;;;;;35.50;50.00;;;;;;5010636;28;20356;-74
2021/09/11 12:35:54;;;;;;;;;;;35.80;50.30;;;;;;5011136;28;19910;-71
2021/09/11 12:39:01;;;;;;;;;;;38.60;48.80;;;;;;5011550;28;19913;-71
2021/09/11 12:42:10;;;;;;;;;;;41.00;46.30;;;;;;5011167;28;19925;-70
2021/09/11 12:45:14;;;;;;;;;;;41.60;44.80;;;;;;5011155;28;20315;-73
2021/09/11 12:48:18;;;;;;;;;;;41.00;44.10;;;;;;5011149;28;19913;-71
2021/09/11 12:51:22;;;;;;;;;;;37.00;45.70;;;;;;5009889;28;19917;-73
2021/09/11 12:54:26;;;;;;;;;;;33.40;49.50;;;;;;5010101;28;19913;-73
2021/09/11 12:57:30;;;;;;;;;;;34.30;49.00;;;;;;5011224;28;19917;-71
2021/09/11 13:00:36;;;;;;;;;;;37.10;47.90;;;;;;5010506;28;19909;-72
2021/09/11 13:03:41;;;;;;;;;;;40.90;46.00;;;;;;5009471;28;19914;-72
2021/09/11 13:06:45;;;;;;;;;;;41.80;43.80;;;;;;5010953;28;19913;-73
2021/09/11 13:09:49;;;;;;;;;;;43.20;43.60;;;;;;5014096;28;19913;-73
2021/09/11 13:12:53;;;;;;;;;;;44.50;42.50;;;;;;5010515;28;19909;-72
2021/09/11 13:15:58;;;;;;;;;;;44.70;42.00;;;;;;5013494;28;19913;-71
2021/09/11 13:19:04;;;;;;;;;;;43.60;42.30;;;;;;5012446;28;20511;-72
2021/09/11 13:22:08;;;;;;;;;;;43.50;42.30;;;;;;5013638;28;19914;-72
2021/09/11 13:25:12;;;;;;;;;;;42.50;42.60;;;;;;5013338;28;20283;-72
2021/09/11 13:28:16;;;;;;;;;;;42.90;42.50;;;;;;5011126;28;20291;-72
2021/09/11 13:31:22;;;;;;;;;;;42.80;42.00;;;;;;5011638;28;19909;-72
2021/09/11 13:34:30;;;;;;;;;;;39.20;43.60;;;;;;5014041;28;19917;-73
2021/09/11 13:37:33;;;;;;;;;;;39.50;43.80;;;;;;5013743;28;19913;-74
2021/09/11 13:40:39;;;;;;;;;;;40.10;43.00;;;;;;5011801;28;19910;-72
2021/09/11 13:43:43;;;;;;;;;;;41.30;42.60;;;;;;5013336;28;19917;-71
2021/09/11 13:46:47;;;;;;;;;;;42.20;42.10;;;;;;5013447;28;19909;-74
2021/09/11 13:49:51;;;;;;;;;;;42.60;41.00;;;;;;5010590;28;20272;-73
2021/09/11 13:52:55;;;;;;;;;;;42.60;41.80;;;;;;5010158;28;20364;-72
2021/09/11 13:56:01;;;;;;;;;;;43.20;41.30;;;;;;5012691;28;19909;-71
2021/09/11 13:59:06;;;;;;;;;;;42.70;41.00;;;;;;5009246;28;19921;-71
2021/09/11 14:02:10;;;;;;;;;;;41.50;41.20;;;;;;5010286;28;20356;-72
2021/09/11 14:05:14;;;;;;;;;;;41.80;42.10;;;;;;5032446;28;19918;-71
2021/09/11 14:08:19;;;;;;;;;;;42.00;42.10;;;;;;5012876;28;20344;-71
2021/09/11 14:11:23;;;;;;;;;;;41.80;41.80;;;;;;5012690;28;19913;-72
2021/09/11 14:14:28;;;;;;;;;;;41.60;42.00;;;;;;5013315;28;19909;-72
2021/09/11 14:17:32;;;;;;;;;;;41.30;41.70;;;;;;5013695;28;19913;-73
2021/09/11 14:20:36;;;;;;;;;;;41.10;42.30;;;;;;5013114;28;19917;-72
2021/09/11 14:23:40;;;;;;;;;;;40.70;42.40;;;;;;5012034;28;19913;-72
2021/09/11 14:26:44;;;;;;;;;;;40.10;43.10;;;;;;5013569;28;19929;-73
2021/09/11 14:29:48;;;;;;;;;;;39.80;43.90;;;;;;5013090;28;19913;-72
2021/09/11 14:32:52;;;;;;;;;;;39.10;43.70;;;;;;5011592;28;19909;-72
2021/09/11 14:35:56;;;;;;;;;;;38.90;44.10;;;;;;5012967;28;19909;-73
2021/09/11 14:39:02;;;;;;;;;;;38.70;44.60;;;;;;5013208;28;19913;-72
2021/09/11 14:42:06;;;;;;;;;;;38.00;44.70;;;;;;5012873;28;20284;-73
2021/09/11 14:45:10;;;;;;;;;;;37.40;45.00;;;;;;5012373;28;20496;-73
2021/09/11 14:48:13;;;;;;;;;;;37.30;45.20;;;;;;5012861;28;20292;-72
2021/09/11 14:51:18;;;;;;;;;;;37.00;45.20;;;;;;5011486;28;19917;-73
2021/09/11 14:54:22;;;;;;;;;;;36.60;45.10;;;;;;5012594;28;19916;-72
2021/09/11 14:57:26;;;;;;;;;;;36.30;45.60;;;;;;5012854;28;19913;-72
2021/09/11 15:00:30;;;;;;;;;;;35.80;46.30;;;;;;5012723;28;19909;-72
2021/09/11 15:03:35;;;;;;;;;;;35.70;46.50;;;;;;5012917;28;19913;-72
2021/09/11 15:06:39;;;;;;;;;;;35.30;48.60;;;;;;5012733;28;19909;-72
2021/09/11 15:09:43;;;;;;;;;;;35.00;49.20;;;;;;5012593;28;19913;-72
2021/09/11 15:12:47;;;;;;;;;;;35.00;49.20;;;;;;5012249;28;20356;-72
2021/09/11 15:15:51;;;;;;;;;;;34.80;49.50;;;;;;5012307;28;19909;-73
2021/09/11 15:18:55;;;;;;;;;;;34.60;50.00;;;;;;5012179;28;20364;-74
2021/09/11 15:22:00;;;;;;;;;;;34.50;50.00;;;;;;5011392;28;19909;-73
2021/09/11 15:25:05;;;;;;;;;;;34.70;50.50;;;;;;5010973;28;19913;-73
2021/09/11 15:28:11;;;;;;;;;;;34.50;50.30;;;;;;5011918;28;19909;-73
2021/09/11 15:31:15;;;;;;;;;;;34.50;50.50;;;;;;5033812;28;20268;-72
2021/09/11 15:34:19;;;;;;;;;;;34.30;50.80;;;;;;5011448;28;19913;-72
2021/09/11 15:37:25;;;;;;;;;;;34.00;51.30;;;;;;5009966;28;19909;-72
2021/09/11 15:40:29;;;;;;;;;;;33.90;51.60;;;;;;5008922;28;20274;-71
2021/09/11 15:43:34;;;;;;;;;;;33.50;51.90;;;;;;4999472;28;19914;-72
2021/09/11 15:46:39;;;;;;;;;;;33.20;52.20;;;;;;5009478;28;19914;-73
2021/09/11 15:49:43;;;;;;;;;;;33.00;52.50;;;;;;5010724;28;19917;-72
2021/09/11 15:52:47;;;;;;;;;;;32.70;52.80;;;;;;5008419;28;19932;-72
2021/09/11 15:55:51;;;;;;;;;;;32.60;53.60;;;;;;5011425;28;19931;-73
2021/09/11 15:58:55;;;;;;;;;;;32.20;53.60;;;;;;5010602;28;19928;-73
2021/09/11 16:01:59;;;;;;;;;;;32.00;53.90;;;;;;4990451;28;19936;-72
2021/09/11 16:05:03;;;;;;;;;;;31.80;54.20;;;;;;5002807;28;19917;-71
2021/09/11 16:08:08;;;;;;;;;;;31.60;54.60;;;;;;5012095;28;19914;-72
2021/09/11 16:11:12;;;;;;;;;;;31.50;54.40;;;;;;5010199;28;20348;-72
2021/09/11 16:14:16;;;;;;;;;;;31.50;54.70;;;;;;5011579;28;19925;-72
2021/09/11 16:17:20;;;;;;;;;;;31.40;54.70;;;;;;5011731;28;19913;-72
2021/09/11 16:20:24;;;;;;;;;;;31.40;54.90;;;;;;5011159;28;19909;-73
2021/09/11 16:23:30;;;;;;;;;;;31.40;54.70;;;;;;5010933;28;20260;-72
2021/09/11 16:26:34;;;;;;;;;;;31.30;54.90;;;;;;5010104;28;19920;-72
2021/09/11 16:29:39;;;;;;;;;;;31.20;55.10;;;;;;5008426;28;19909;-72
2021/09/11 16:32:44;;;;;;;;;;;31.10;55.60;;;;;;5010285;28;19913;-72
2021/09/11 16:35:48;;;;;;;;;;;31.00;55.70;;;;;;5011200;28;19910;-72
2021/09/11 16:38:52;;;;;;;;;;;30.90;55.90;;;;;;5011635;28;20367;-73
2021/09/11 16:41:56;;;;;;;;;;;30.90;56.00;;;;;;5011773;28;20292;-72
2021/09/11 16:45:00;;;;;;;;;;;30.70;56.20;;;;;;5015192;28;19914;-71
2021/09/11 16:48:05;;;;;;;;;;;30.50;56.70;;;;;;5013445;28;19913;-72
2021/09/11 16:51:09;;;;;;;;;;;30.20;57.20;;;;;;5009321;28;19913;-72
2021/09/11 16:54:13;;;;;;;;;;;30.00;57.80;;;;;;5015128;28;20332;-73
2021/09/11 16:57:17;;;;;;;;;;;29.80;58.00;;;;;;5013163;28;19917;-73
2021/09/11 17:00:21;;;;;;;;;;;29.60;58.40;;;;;;5014836;28;19909;-72
2021/09/11 17:03:25;;;;;;;;;;;29.40;58.60;;;;;;5014569;28;20548;-72
2021/09/11 17:06:29;;;;;;;;;;;29.30;59.00;;;;;;5013417;28;19910;-73
2021/09/11 17:09:33;;;;;;;;;;;29.10;59.40;;;;;;5013837;28;20353;-73
2021/09/11 17:12:37;;;;;;;;;;;29.00;59.60;;;;;;5013870;28;19909;-72
2021/09/11 17:15:41;;;;;;;;;;;28.80;59.90;;;;;;5014731;28;19909;-72
2021/09/11 17:18:47;;;;;;;;;;;28.60;60.20;;;;;;5014781;28;19913;-73
2021/09/11 17:21:51;;;;;;;;;;;28.40;60.50;;;;;;5012955;28;19913;-72
2021/09/11 17:24:55;;;;;;;;;;;28.20;61.30;;;;;;5013572;28;19924;-72
2021/09/11 17:28:02;;;;;;;;;;;28.00;61.90;;;;;;5014012;28;19913;-72
2021/09/11 17:31:07;;;;;;;;;;;27.80;62.30;;;;;;5012669;28;19920;-71
2021/09/11 17:34:11;;;;;;;;;;;27.60;62.90;;;;;;5014447;28;19909;-72
2021/09/11 17:37:15;;;;;;;;;;;27.50;63.20;;;;;;5013892;28;20536;-71
2021/09/11 17:40:19;;;;;;;;;;;27.20;63.90;;;;;;5036050;28;19909;-71
2021/09/11 17:43:23;;;;;;;;;;;26.90;64.30;;;;;;5013212;28;19918;-71
2021/09/11 17:46:27;;;;;;;;;;;26.70;65.00;;;;;;5012757;28;19913;-72
2021/09/11 17:49:31;;;;;;;;;;;26.60;65.30;;;;;;5014036;28;19914;-71
2021/09/11 17:52:35;;;;;;;;;;;26.50;65.30;;;;;;5013005;28;19909;-70
2021/09/11 17:55:40;;;;;;;;;;;26.40;65.60;;;;;;5013698;28;19913;-70